createdAt,value
2022-10-19T00:01:46.332Z,93.51
2022-10-19T00:05:09.075Z,93.32
2022-10-19T00:08:32.570Z,93.19
2022-10-19T00:11:54.713Z,93.12
2022-10-19T00:15:16.721Z,92.81
2022-10-19T00:18:38.622Z,92.77
2022-10-19T00:22:00.421Z,93.19
2022-10-19T00:25:23.718Z,92.70
2022-10-19T00:28:46.562Z,92.27
2022-10-19T00:32:08.612Z,92.10
2022-10-19T00:35:30.265Z,92.35
2022-10-19T00:38:52.452Z,91.98
2022-10-19T00:42:15.506Z,92.30
2022-10-19T00:45:37.594Z,91.92
2022-10-19T00:49:03.283Z,91.96
2022-10-19T00:52:27.995Z,91.59
2022-10-19T00:55:50.184Z,91.46
2022-10-19T00:59:16.232Z,91.93
2022-10-19T01:02:38.214Z,91.00
2022-10-19T01:06:00.989Z,91.51
2022-10-19T01:09:22.767Z,91.20
2022-10-19T01:13:05.898Z,91.29
2022-10-19T01:16:38.227Z,91.33
2022-10-19T01:20:22.310Z,90.72
2022-10-19T01:24:47.086Z,90.76
2022-10-19T01:28:28.608Z,90.93
2022-10-19T01:32:01.327Z,90.91
2022-10-19T01:35:29.566Z,90.29
2022-10-19T01:38:58.419Z,90.16
2022-10-19T01:42:30.054Z,89.51
2022-10-19T01:45:55.756Z,89.18
2022-10-19T01:49:26.118Z,88.59
2022-10-19T01:52:51.172Z,88.71
2022-10-19T01:56:14.153Z,86.35
2022-10-19T01:59:38.641Z,86.73
2022-10-19T02:03:02.497Z,86.86
2022-10-19T02:06:25.716Z,87.27
2022-10-19T02:09:47.248Z,87.13
2022-10-19T02:13:09.435Z,87.33
2022-10-19T02:16:34.890Z,87.68
2022-10-19T02:19:57.556Z,87.30
2022-10-19T02:23:24.675Z,87.20
2022-10-19T02:26:46.637Z,85.76
2022-10-19T02:30:09.853Z,86.60
2022-10-19T02:33:32.436Z,85.62
2022-10-19T02:36:55.590Z,85.96
2022-10-19T02:40:19.064Z,84.72
2022-10-19T02:43:44.168Z,84.98
2022-10-19T02:47:11.731Z,84.60
2022-10-19T02:50:33.632Z,84.08
2022-10-19T02:53:55.483Z,83.75
2022-10-19T02:57:20.858Z,84.00
2022-10-19T03:00:43.124Z,84.68
2022-10-19T03:04:05.384Z,83.99
2022-10-19T03:07:27.136Z,84.67
2022-10-19T03:10:48.919Z,84.38
2022-10-19T03:14:12.373Z,85.08
2022-10-19T03:17:34.296Z,85.22
2022-10-19T03:21:03.994Z,85.25
2022-10-19T03:24:26.199Z,84.84
2022-10-19T03:27:48.089Z,85.28
2022-10-19T03:31:11.588Z,84.95
2022-10-19T03:34:33.674Z,84.90
2022-10-19T03:37:55.500Z,84.85
2022-10-19T03:41:17.284Z,85.42
2022-10-19T03:44:39.096Z,85.24
2022-10-19T03:48:02.342Z,85.72
2022-10-19T03:51:25.986Z,86.15
2022-10-19T03:54:48.180Z,86.75
2022-10-19T03:58:10.233Z,86.41
2022-10-19T04:01:34.418Z,86.83
2022-10-19T04:04:57.528Z,87.12
2022-10-19T04:08:19.229Z,87.88
2022-10-19T04:11:41.167Z,87.31
2022-10-19T04:15:03.053Z,87.62
2022-10-19T04:18:24.896Z,88.14
2022-10-19T04:21:50.196Z,88.61
2022-10-19T04:25:12.523Z,89.16
2022-10-19T04:28:34.253Z,89.01
2022-10-19T04:31:56.110Z,89.70
2022-10-19T04:35:17.928Z,89.05
2022-10-19T04:38:41.368Z,89.41
2022-10-19T04:42:03.285Z,90.01
2022-10-19T04:45:25.209Z,90.04
2022-10-19T04:48:48.214Z,89.76
2022-10-19T04:52:10.089Z,89.94
2022-10-19T04:55:33.293Z,90.25
2022-10-19T04:58:57.685Z,90.11
2022-10-19T05:02:19.581Z,90.23
2022-10-19T05:05:41.614Z,90.65
2022-10-19T05:09:03.339Z,90.61
2022-10-19T05:13:29.557Z,90.59
2022-10-19T05:16:52.850Z,90.48
2022-10-19T05:20:14.910Z,90.41
2022-10-19T05:23:36.937Z,90.16
2022-10-19T05:27:49.206Z,90.08
2022-10-19T05:31:14.068Z,89.66
2022-10-19T05:34:37.196Z,90.09
2022-10-19T05:37:59.178Z,89.95
2022-10-19T05:41:24.360Z,90.12
2022-10-19T05:44:46.188Z,90.10
2022-10-19T05:48:07.987Z,89.49
2022-10-19T05:56:25.595Z,88.98
2022-10-19T05:59:47.350Z,88.94
2022-10-19T06:03:09.137Z,88.98
2022-10-19T06:06:32.921Z,88.89
2022-10-19T06:09:54.836Z,89.22
2022-10-19T06:13:20.948Z,89.49
2022-10-19T06:16:43.536Z,88.51
2022-10-19T06:21:06.913Z,88.65
2022-10-19T06:24:28.545Z,88.69
2022-10-19T06:27:50.611Z,88.38
2022-10-19T06:31:14.998Z,88.24
2022-10-19T06:34:36.697Z,88.75
2022-10-19T06:37:58.983Z,88.14
2022-10-19T06:41:21.225Z,87.88
2022-10-19T06:44:43.360Z,88.12
2022-10-19T06:48:07.832Z,87.69
2022-10-19T06:51:32.150Z,87.18
2022-10-19T06:55:19.420Z,87.31
2022-10-19T06:58:41.758Z,86.79
2022-10-19T07:02:03.852Z,86.06
2022-10-19T07:05:27.848Z,86.12
2022-10-19T07:08:49.908Z,86.37
2022-10-19T07:12:11.483Z,85.73
2022-10-19T07:15:33.645Z,85.21
2022-10-19T07:19:57.067Z,85.50
2022-10-19T07:23:19.920Z,85.34
2022-10-19T07:26:41.814Z,85.54
2022-10-19T07:30:04.088Z,84.41
2022-10-19T07:33:25.764Z,83.11
2022-10-19T07:36:49.140Z,83.83
2022-10-19T07:40:14.297Z,83.31
2022-10-19T07:43:36.504Z,83.85
2022-10-19T07:46:59.378Z,83.10
2022-10-19T07:50:25.407Z,82.32
2022-10-19T07:53:49.080Z,82.32
2022-10-19T07:57:14.027Z,80.82
2022-10-19T08:00:36.022Z,81.21
2022-10-19T08:07:41.770Z,80.56
2022-10-19T08:11:08.576Z,80.19
2022-10-19T08:14:32.138Z,79.53
2022-10-19T08:17:54.064Z,76.76
2022-10-19T08:21:16.019Z,77.65
2022-10-19T08:24:37.812Z,78.18
2022-10-19T08:27:59.692Z,77.17
2022-10-19T08:36:11.644Z,76.49
2022-10-19T08:39:33.373Z,76.43
2022-10-19T08:43:00.426Z,75.67
2022-10-19T08:46:33.795Z,74.26
2022-10-19T08:49:56.775Z,75.78
2022-10-19T08:53:28.333Z,75.63
2022-10-19T08:56:58.298Z,74.92
2022-10-19T09:04:09.008Z,75.04
2022-10-19T09:07:34.538Z,74.85
2022-10-19T09:10:58.687Z,75.54
2022-10-19T09:14:27.071Z,75.97
2022-10-19T09:17:49.420Z,73.83
2022-10-19T09:21:16.601Z,73.78
2022-10-19T09:24:44.239Z,72.40
2022-10-19T09:28:36.467Z,71.65
2022-10-19T09:32:05.322Z,72.26
2022-10-19T09:35:31.685Z,72.42
2022-10-19T09:38:53.659Z,71.17
2022-10-19T09:42:24.791Z,71.34
2022-10-19T09:45:53.132Z,72.51
2022-10-19T09:49:15.099Z,72.40
2022-10-19T09:52:39.205Z,71.64
2022-10-19T09:56:06.325Z,71.57
2022-10-19T09:59:32.275Z,71.30
2022-10-19T10:02:56.864Z,72.05
2022-10-19T10:06:41.667Z,72.25
2022-10-19T10:10:10.072Z,72.09
2022-10-19T10:13:32.099Z,72.87
2022-10-19T10:16:57.369Z,72.04
2022-10-19T10:20:30.515Z,71.66
2022-10-19T10:24:05.890Z,70.65
2022-10-19T10:27:33.196Z,70.45
2022-10-19T10:31:00.930Z,69.45
2022-10-19T10:38:21.512Z,66.64
2022-10-19T10:41:45.989Z,66.39
2022-10-19T10:45:18.477Z,65.25
2022-10-19T10:48:44.218Z,65.53
2022-10-19T11:00:53.069Z,66.66
2022-10-19T11:04:20.709Z,65.23
2022-10-19T11:07:46.069Z,65.21
2022-10-19T11:11:15.872Z,63.73
2022-10-19T11:15:15.870Z,64.40
2022-10-19T11:18:53.102Z,63.38
2022-10-19T11:22:27.524Z,64.31
2022-10-19T11:26:04.925Z,64.89
2022-10-19T11:29:39.346Z,64.91
2022-10-19T11:37:07.397Z,61.65
2022-10-19T11:40:36.767Z,61.53
2022-10-19T11:44:18.112Z,61.33
2022-10-19T11:48:03.959Z,61.10
2022-10-19T11:51:35.658Z,61.04
2022-10-19T11:55:05.951Z,60.63
2022-10-19T11:58:43.030Z,60.92
2022-10-19T12:02:26.664Z,62.06
2022-10-19T12:06:09.338Z,61.31
2022-10-19T12:09:44.489Z,61.54
2022-10-19T12:13:14.727Z,62.12
2022-10-19T12:16:41.488Z,60.68
2022-10-19T12:20:07.942Z,61.19
2022-10-19T12:23:34.405Z,58.56
2022-10-19T12:26:56.717Z,59.36
2022-10-19T12:30:22.359Z,59.95
2022-10-19T12:33:50.871Z,59.55
2022-10-19T12:37:19.844Z,60.01
2022-10-19T12:40:47.531Z,58.85
2022-10-19T12:44:43.378Z,59.74
2022-10-19T12:48:24.779Z,59.36
2022-10-19T12:51:47.872Z,58.51
2022-10-19T12:55:24.816Z,57.93
2022-10-19T12:58:51.320Z,57.95
2022-10-19T13:02:27.094Z,58.19
2022-10-19T13:05:59.469Z,58.90
2022-10-19T13:09:26.100Z,58.29
2022-10-19T13:12:48.699Z,58.80
2022-10-19T13:16:48.626Z,57.98
2022-10-19T13:20:51.588Z,59.09
2022-10-19T13:24:42.287Z,58.86
2022-10-19T13:28:39.733Z,59.18
2022-10-19T13:32:39.933Z,59.51
2022-10-19T13:36:09.683Z,59.84
2022-10-19T13:39:31.810Z,59.74
2022-10-19T13:43:00.765Z,59.39
2022-10-19T13:46:33.739Z,59.99
2022-10-19T13:50:14.168Z,58.69
2022-10-19T13:53:45.212Z,59.79
2022-10-19T13:57:19.103Z,60.41
2022-10-19T14:00:59.082Z,60.28
2022-10-19T14:04:28.260Z,60.41
2022-10-19T14:08:04.608Z,60.83
2022-10-19T14:11:31.196Z,61.47
2022-10-19T14:14:54.683Z,60.78
2022-10-19T14:18:29.753Z,60.82
2022-10-19T14:21:51.611Z,61.07
2022-10-19T14:25:19.766Z,61.67
2022-10-19T14:28:43.239Z,61.58
2022-10-19T15:02:00.791Z,64.68
2022-10-19T15:05:27.039Z,65.11
2022-10-19T15:12:26.372Z,64.94
2022-10-19T15:15:54.220Z,65.30
2022-10-19T15:19:30.932Z,65.76
2022-10-19T15:22:54.199Z,65.50
2022-10-19T15:26:23.407Z,65.77
2022-10-19T15:29:58.223Z,66.01
2022-10-19T15:33:24.780Z,66.62
2022-10-19T15:37:00.030Z,67.14
2022-10-19T15:40:31.904Z,67.20
2022-10-19T15:43:57.416Z,67.56
2022-10-19T15:47:24.996Z,68.31
2022-10-19T15:50:50.805Z,68.65
2022-10-19T15:54:18.683Z,68.48
2022-10-19T15:57:41.946Z,69.29
2022-10-19T16:01:07.880Z,69.69
2022-10-19T16:04:31.051Z,70.44
2022-10-19T16:08:00.234Z,70.30
2022-10-19T16:11:25.239Z,70.45
2022-10-19T16:14:48.416Z,71.06
2022-10-19T16:18:13.838Z,71.61
2022-10-19T16:21:40.598Z,71.60
2022-10-19T16:29:50.780Z,72.59
2022-10-19T16:33:13.837Z,72.87
2022-10-19T16:37:09.040Z,73.12
2022-10-19T16:40:30.992Z,72.95
2022-10-19T16:43:55.855Z,73.59
2022-10-19T16:47:20.278Z,73.35
2022-10-19T16:54:06.431Z,73.60
2022-10-19T16:57:28.539Z,74.29
2022-10-19T17:00:50.432Z,73.94
2022-10-19T17:04:15.199Z,74.30
2022-10-19T17:07:37.231Z,74.83
2022-10-19T17:10:59.369Z,74.72
2022-10-19T17:14:21.021Z,74.98
2022-10-19T17:17:43.009Z,75.50
2022-10-19T17:21:08.416Z,76.06
2022-10-19T17:24:30.504Z,76.13
2022-10-19T17:27:52.541Z,76.71
2022-10-19T17:31:15.543Z,76.80
2022-10-19T17:34:37.775Z,76.57
2022-10-19T17:38:01.273Z,77.11
2022-10-19T17:41:23.740Z,76.90
2022-10-19T17:44:45.711Z,76.76
2022-10-19T17:48:08.872Z,77.20
2022-10-19T17:51:33.199Z,76.68
2022-10-19T17:55:13.571Z,76.89
2022-10-19T17:58:39.738Z,77.54
2022-10-19T18:02:01.804Z,76.81
2022-10-19T18:05:26.973Z,76.81
2022-10-19T18:08:50.881Z,77.37
2022-10-19T18:12:14.417Z,77.84
2022-10-19T18:15:36.547Z,77.61
2022-10-19T18:18:59.974Z,78.02
2022-10-19T18:22:22.026Z,78.02
2022-10-19T18:25:54.060Z,77.49
2022-10-19T18:29:21.888Z,77.84
2022-10-19T18:32:43.787Z,77.93
2022-10-19T18:36:06.793Z,78.29
2022-10-19T18:39:28.789Z,77.59
2022-10-19T18:42:50.978Z,78.10
2022-10-19T18:46:14.262Z,78.22
2022-10-19T18:49:36.484Z,78.51
2022-10-19T18:52:58.608Z,78.08
2022-10-19T18:56:22.253Z,78.16
2022-10-19T18:59:44.368Z,78.47
2022-10-19T19:03:07.976Z,78.43
2022-10-19T19:06:31.759Z,78.70
2022-10-19T19:09:53.455Z,78.23
2022-10-19T19:13:15.358Z,78.27
2022-10-19T19:16:39.874Z,78.79
2022-10-19T19:20:03.800Z,78.55
2022-10-19T19:23:26.257Z,78.65
2022-10-19T19:26:50.765Z,78.72
2022-10-19T19:30:12.746Z,79.44
2022-10-19T19:33:34.718Z,79.69
2022-10-19T19:36:58.133Z,79.76
2022-10-19T19:40:20.442Z,79.52
2022-10-19T19:43:43.819Z,80.09
2022-10-19T19:47:06.038Z,80.01
2022-10-19T19:50:28.451Z,80.19
2022-10-19T19:53:51.933Z,80.01
2022-10-19T19:57:14.276Z,80.66
2022-10-19T20:00:36.224Z,81.04
2022-10-19T20:04:00.267Z,81.80
2022-10-19T20:07:22.032Z,81.75
2022-10-19T20:10:45.378Z,81.83
2022-10-19T20:14:07.449Z,81.65
2022-10-19T20:17:29.310Z,82.21
2022-10-19T20:20:51.269Z,82.12
2022-10-19T20:24:13.818Z,82.00
2022-10-19T20:27:37.892Z,82.09
2022-10-19T20:31:04.540Z,82.18
2022-10-19T20:34:26.698Z,81.46
2022-10-19T20:37:50.523Z,82.06
2022-10-19T20:41:12.408Z,82.56
2022-10-19T20:44:35.611Z,82.88
2022-10-19T20:47:57.678Z,82.52
2022-10-19T20:51:24.866Z,82.76
2022-10-19T20:54:49.823Z,82.29
2022-10-19T20:58:11.512Z,82.37
2022-10-19T21:01:37.007Z,81.92
2022-10-19T21:04:58.924Z,82.18
2022-10-19T21:08:20.949Z,82.53
2022-10-19T21:11:44.863Z,83.40
2022-10-19T21:15:06.934Z,83.60
2022-10-19T21:18:30.211Z,83.35
2022-10-19T21:21:55.561Z,83.75
2022-10-19T21:25:17.704Z,83.53
2022-10-19T21:28:40.164Z,83.51
2022-10-19T21:32:02.161Z,83.85
2022-10-19T21:35:25.595Z,83.76
2022-10-19T21:38:47.509Z,83.98
2022-10-19T21:42:09.563Z,84.17
2022-10-19T21:45:31.325Z,83.82
2022-10-19T21:48:54.081Z,84.06
2022-10-19T21:52:17.289Z,84.29
2022-10-19T21:55:39.204Z,84.60
2022-10-19T21:59:01.111Z,84.62
2022-10-19T22:02:22.912Z,84.87
2022-10-19T22:05:51.155Z,85.17
2022-10-19T22:09:18.192Z,85.56
2022-10-19T22:12:40.947Z,85.68
2022-10-19T22:16:08.823Z,86.00
2022-10-19T22:19:31.476Z,85.37
2022-10-19T22:22:55.025Z,85.75
2022-10-19T22:26:22.356Z,85.66
2022-10-19T22:29:45.789Z,85.14
2022-10-19T22:33:08.542Z,85.24
2022-10-19T22:36:31.601Z,85.32
2022-10-19T22:39:55.073Z,85.86
2022-10-19T22:44:11.588Z,85.54
2022-10-19T22:47:35.777Z,85.09
2022-10-19T22:50:58.635Z,85.19
2022-10-19T22:54:21.383Z,85.14
2022-10-19T22:57:44.043Z,85.46
2022-10-19T23:01:09.523Z,85.49
2022-10-19T23:04:33.758Z,85.70
2022-10-19T23:07:56.820Z,85.93
2022-10-19T23:11:19.704Z,86.27
2022-10-19T23:14:42.532Z,86.21
2022-10-19T23:18:05.181Z,86.49
2022-10-19T23:21:29.168Z,86.59
2022-10-19T23:24:51.718Z,86.72
2022-10-19T23:28:14.573Z,86.61
2022-10-19T23:31:37.126Z,87.35
2022-10-19T23:34:59.673Z,86.76
2022-10-19T23:38:23.969Z,87.07
2022-10-19T23:41:46.616Z,86.57
2022-10-19T23:45:09.964Z,86.42
2022-10-19T23:48:33.151Z,86.15
2022-10-19T23:51:55.803Z,86.13
2022-10-19T23:55:20.097Z,86.07
